createdAt,value
2023-12-11T00:01:11.826Z,2.10
2023-12-11T00:03:38.823Z,2.10
2023-12-11T00:06:05.913Z,2.10
2023-12-11T00:08:33.956Z,2.10
2023-12-11T00:11:01.078Z,2.10
2023-12-11T00:13:28.033Z,2.10
2023-12-11T00:15:54.972Z,2.10
2023-12-11T00:18:22.259Z,2.10
2023-12-11T00:20:49.665Z,2.10
2023-12-11T00:23:17.012Z,2.10
2023-12-11T00:25:48.037Z,2.10
2023-12-11T00:28:15.054Z,2.10
2023-12-11T00:30:42.065Z,2.10
2023-12-11T00:33:09.479Z,2.10
2023-12-11T00:35:37.089Z,2.10
2023-12-11T00:38:04.013Z,1.90
2023-12-11T00:40:30.881Z,1.80
2023-12-11T00:42:58.120Z,1.90
2023-12-11T00:45:25.175Z,1.90
2023-12-11T00:47:52.264Z,1.90
2023-12-11T00:50:19.582Z,1.90
2023-12-11T00:52:46.833Z,1.90
2023-12-11T00:55:14.316Z,1.80
2023-12-11T00:57:41.315Z,1.80
2023-12-11T01:00:10.210Z,1.90
2023-12-11T01:02:37.176Z,1.90
2023-12-11T01:05:04.360Z,2.00
2023-12-11T01:07:32.698Z,2.10
2023-12-11T01:09:59.658Z,2.20
2023-12-11T01:12:26.666Z,2.20
2023-12-11T01:14:54.326Z,2.30
2023-12-11T01:17:37.701Z,2.40
2023-12-11T01:20:08.545Z,2.40
2023-12-11T01:22:35.654Z,2.40
2023-12-11T01:25:04.362Z,2.50
2023-12-11T01:27:32.382Z,2.50
2023-12-11T01:30:00.086Z,2.50
2023-12-11T01:32:27.998Z,2.50
2023-12-11T01:34:55.029Z,2.50
2023-12-11T01:37:21.925Z,2.50
2023-12-11T01:39:48.896Z,2.50
2023-12-11T01:42:16.663Z,2.50
2023-12-11T01:44:43.919Z,2.60
2023-12-11T01:47:11.137Z,2.50
2023-12-11T01:49:38.244Z,2.60
2023-12-11T01:52:06.063Z,2.60
2023-12-11T01:54:33.193Z,2.60
2023-12-11T01:57:00.226Z,2.70
2023-12-11T01:59:27.571Z,2.70
2023-12-11T02:01:54.913Z,2.70
2023-12-11T02:04:22.065Z,2.70
2023-12-11T02:06:49.447Z,2.70
2023-12-11T02:09:16.955Z,2.80
2023-12-11T02:11:47.083Z,2.80
2023-12-11T02:14:14.335Z,2.80
2023-12-11T02:16:41.669Z,2.80
2023-12-11T02:19:09.009Z,2.80
2023-12-11T02:21:36.080Z,2.90
2023-12-11T02:24:23.820Z,2.90
2023-12-11T02:26:50.761Z,2.90
2023-12-11T02:29:17.635Z,2.90
2023-12-11T02:31:44.913Z,2.90
2023-12-11T02:34:12.113Z,2.90
2023-12-11T02:36:39.066Z,2.90
2023-12-11T02:39:06.057Z,2.90
2023-12-11T02:41:33.002Z,2.80
2023-12-11T02:44:00.559Z,2.70
2023-12-11T02:46:27.426Z,2.70
2023-12-11T02:48:54.859Z,2.70
2023-12-11T02:51:22.239Z,2.80
2023-12-11T02:53:50.297Z,2.80
2023-12-11T02:56:17.179Z,2.90
2023-12-11T02:58:45.766Z,2.90
2023-12-11T03:01:13.327Z,2.90
2023-12-11T03:03:40.356Z,2.90
2023-12-11T03:06:07.652Z,2.90
2023-12-11T03:08:34.631Z,2.90
2023-12-11T03:11:01.672Z,2.90
2023-12-11T03:13:28.806Z,2.90
2023-12-11T03:15:56.668Z,2.90
2023-12-11T03:18:23.854Z,2.90
2023-12-11T03:20:50.706Z,3.00
2023-12-11T03:23:17.613Z,3.00
2023-12-11T03:25:44.434Z,3.10
2023-12-11T03:28:11.672Z,3.10
2023-12-11T03:30:38.645Z,3.10
2023-12-11T03:33:05.515Z,3.10
2023-12-11T03:35:32.519Z,3.10
2023-12-11T03:37:59.448Z,3.20
2023-12-11T03:40:26.362Z,3.20
2023-12-11T03:42:53.501Z,3.20
2023-12-11T03:45:20.826Z,3.20
2023-12-11T03:47:47.856Z,3.20
2023-12-11T03:50:15.131Z,3.30
2023-12-11T03:52:42.093Z,3.30
2023-12-11T03:55:09.282Z,3.30
2023-12-11T03:57:36.246Z,3.20
2023-12-11T04:00:03.344Z,3.10
2023-12-11T04:02:30.465Z,3.10
2023-12-11T04:04:57.527Z,3.20
2023-12-11T04:07:24.511Z,3.20
2023-12-11T04:09:51.791Z,3.20
2023-12-11T04:12:18.736Z,3.30
2023-12-11T04:14:45.653Z,3.30
2023-12-11T04:17:12.781Z,3.40
2023-12-11T04:19:39.818Z,3.40
2023-12-11T04:22:06.851Z,3.40
2023-12-11T04:24:33.774Z,3.40
2023-12-11T04:27:00.716Z,3.40
2023-12-11T04:29:27.655Z,3.50
2023-12-11T04:31:54.817Z,3.50
2023-12-11T04:34:21.680Z,3.50
2023-12-11T04:36:49.166Z,3.40
2023-12-11T04:39:16.101Z,3.50
2023-12-11T04:41:42.982Z,3.50
2023-12-11T04:44:10.213Z,3.50
2023-12-11T04:46:37.199Z,3.50
2023-12-11T04:49:04.335Z,3.50
2023-12-11T04:51:31.334Z,3.50
2023-12-11T04:54:00.773Z,3.60
2023-12-11T04:56:28.279Z,3.50
2023-12-11T04:58:55.262Z,3.50
2023-12-11T05:01:23.398Z,3.60
2023-12-11T05:03:50.432Z,3.60
2023-12-11T05:06:17.308Z,3.60
2023-12-11T05:08:44.199Z,3.60
2023-12-11T05:11:11.363Z,3.60
2023-12-11T05:13:38.335Z,3.60
2023-12-11T05:16:06.045Z,3.70
2023-12-11T05:18:33.016Z,3.70
2023-12-11T05:21:00.182Z,3.70
2023-12-11T05:23:27.032Z,3.70
2023-12-11T05:25:54.648Z,3.70
2023-12-11T05:28:21.681Z,3.70
2023-12-11T05:30:48.543Z,3.70
2023-12-11T05:33:15.520Z,3.70
2023-12-11T05:35:42.476Z,3.70
2023-12-11T05:38:09.657Z,3.80
2023-12-11T05:40:36.948Z,3.70
2023-12-11T05:43:04.615Z,3.70
2023-12-11T05:45:31.502Z,3.80
2023-12-11T05:47:58.625Z,3.80
2023-12-11T05:50:25.853Z,3.70
2023-12-11T05:52:52.731Z,3.60
2023-12-11T05:55:20.121Z,3.50
2023-12-11T05:57:48.681Z,3.50
2023-12-11T06:00:16.471Z,3.60
2023-12-11T06:02:43.420Z,3.60
2023-12-11T06:05:10.710Z,3.70
2023-12-11T06:07:38.213Z,3.70
2023-12-11T06:10:06.738Z,3.70
2023-12-11T06:12:34.060Z,3.70
2023-12-11T06:15:01.001Z,3.70
2023-12-11T06:17:27.995Z,3.70
2023-12-11T06:19:55.123Z,3.70
2023-12-11T06:22:22.485Z,3.80
2023-12-11T06:24:49.464Z,3.80
2023-12-11T06:27:16.410Z,3.80
2023-12-11T06:29:43.659Z,3.80
2023-12-11T06:32:10.630Z,3.80
2023-12-11T06:34:37.812Z,3.80
2023-12-11T06:37:05.317Z,3.80
2023-12-11T06:39:33.749Z,3.70
2023-12-11T06:42:00.785Z,3.80
2023-12-11T06:44:27.922Z,3.80
2023-12-11T06:46:55.053Z,3.80
2023-12-11T06:49:22.404Z,3.70
2023-12-11T06:51:49.895Z,3.70
2023-12-11T06:54:16.871Z,3.70
2023-12-11T06:56:43.776Z,3.70
2023-12-11T06:59:10.813Z,3.70
2023-12-11T07:01:38.298Z,3.70
2023-12-11T07:04:06.809Z,3.80
2023-12-11T07:06:34.629Z,3.80
2023-12-11T07:09:01.877Z,3.80
2023-12-11T07:11:28.822Z,3.80
2023-12-11T07:13:55.916Z,3.80
2023-12-11T07:16:24.888Z,3.80
2023-12-11T07:18:52.598Z,3.80
2023-12-11T07:21:20.119Z,3.80
2023-12-11T07:23:49.738Z,3.80
2023-12-11T07:26:17.099Z,3.80
2023-12-11T07:28:43.972Z,3.80
2023-12-11T07:31:10.906Z,3.90
2023-12-11T07:33:37.881Z,3.90
2023-12-11T07:36:06.041Z,3.90
2023-12-11T07:38:33.154Z,3.90
2023-12-11T07:41:00.273Z,3.90
2023-12-11T07:43:27.423Z,4.00
2023-12-11T07:45:54.967Z,4.00
2023-12-11T07:48:22.197Z,4.00
2023-12-11T07:50:49.232Z,4.00
2023-12-11T07:53:16.166Z,4.00
2023-12-11T07:55:43.520Z,4.00
2023-12-11T07:58:12.008Z,4.00
2023-12-11T08:00:39.487Z,4.00
2023-12-11T08:03:07.775Z,4.10
2023-12-11T08:05:34.796Z,4.10
2023-12-11T08:08:02.765Z,4.10
2023-12-11T08:10:30.068Z,4.10
2023-12-11T08:12:57.214Z,4.10
2023-12-11T08:15:24.087Z,4.10
2023-12-11T08:17:51.511Z,4.10
2023-12-11T08:20:19.766Z,4.10
2023-12-11T08:22:47.388Z,4.10
2023-12-11T08:25:15.009Z,4.00
2023-12-11T08:27:43.229Z,3.90
2023-12-11T08:30:11.623Z,3.90
2023-12-11T08:32:40.431Z,3.90
2023-12-11T08:35:08.610Z,4.00
2023-12-11T08:37:36.249Z,4.10
2023-12-11T08:40:05.615Z,4.10
2023-12-11T08:42:37.714Z,4.10
2023-12-11T08:45:08.388Z,4.20
2023-12-11T08:47:39.056Z,4.20
2023-12-11T08:50:09.118Z,4.20
2023-12-11T08:52:37.604Z,4.20
2023-12-11T08:55:05.357Z,4.20
2023-12-11T08:57:32.658Z,4.20
2023-12-11T09:00:00.114Z,4.20
2023-12-11T09:02:27.348Z,4.20
2023-12-11T09:04:54.654Z,4.20
2023-12-11T09:07:21.691Z,4.20
2023-12-11T09:09:48.694Z,4.20
2023-12-11T09:12:27.756Z,4.20
2023-12-11T09:14:59.904Z,4.30
2023-12-11T09:17:27.207Z,4.30
2023-12-11T09:19:55.916Z,4.30
2023-12-11T09:22:23.991Z,4.30
2023-12-11T09:24:51.302Z,4.40
2023-12-11T09:27:18.253Z,4.40
2023-12-11T09:29:45.404Z,4.40
2023-12-11T09:32:12.354Z,4.40
2023-12-11T09:34:39.480Z,4.40
2023-12-11T09:37:06.637Z,4.40
2023-12-11T09:39:33.889Z,4.50
2023-12-11T09:42:01.822Z,4.50
2023-12-11T09:44:28.751Z,4.50
2023-12-11T09:47:00.020Z,4.50
2023-12-11T09:49:29.414Z,4.50
2023-12-11T09:51:56.585Z,4.50
2023-12-11T09:54:23.596Z,4.50
2023-12-11T09:56:50.558Z,4.50
2023-12-11T09:59:17.844Z,4.50
2023-12-11T10:01:45.226Z,4.60
2023-12-11T10:04:12.188Z,4.60
2023-12-11T10:06:39.127Z,4.60
2023-12-11T10:09:06.799Z,4.60
2023-12-11T10:11:34.948Z,4.60
2023-12-11T10:14:13.178Z,4.70
2023-12-11T10:16:40.530Z,4.70
2023-12-11T10:19:08.108Z,4.70
2023-12-11T10:21:39.953Z,4.70
2023-12-11T10:24:14.730Z,4.70
2023-12-11T10:26:49.334Z,4.80
2023-12-11T10:29:24.443Z,4.80
2023-12-11T10:31:51.959Z,4.70
2023-12-11T10:34:19.193Z,4.80
2023-12-11T10:36:50.472Z,4.70
2023-12-11T10:39:17.711Z,4.70
2023-12-11T10:41:47.673Z,4.70
2023-12-11T10:47:00.522Z,4.60
2023-12-11T10:49:27.586Z,4.60
2023-12-11T10:51:54.607Z,4.70
2023-12-11T10:54:21.855Z,4.70
2023-12-11T10:56:49.679Z,4.60
2023-12-11T10:59:16.602Z,4.60
2023-12-11T11:01:46.072Z,4.60
2023-12-11T11:04:16.134Z,4.50
2023-12-11T11:07:07.388Z,4.60
2023-12-11T11:09:42.996Z,4.60
2023-12-11T11:12:16.974Z,4.60
2023-12-11T11:14:48.537Z,4.70
2023-12-11T11:17:17.828Z,4.70
2023-12-11T11:20:19.048Z,4.70
2023-12-11T11:22:47.368Z,4.70
2023-12-11T11:25:33.830Z,4.70
2023-12-11T11:28:01.211Z,4.70
2023-12-11T11:30:44.070Z,4.70
2023-12-11T11:33:12.020Z,4.70
2023-12-11T11:35:48.884Z,4.70
2023-12-11T11:38:20.493Z,4.70
2023-12-11T11:40:49.825Z,4.70
2023-12-11T11:43:17.879Z,4.70
2023-12-11T11:45:44.908Z,4.70
2023-12-11T11:48:12.545Z,4.70
2023-12-11T11:50:52.045Z,4.70
2023-12-11T11:53:20.202Z,4.70
2023-12-11T11:55:47.225Z,4.70
2023-12-11T11:58:17.784Z,4.70
2023-12-11T12:00:46.957Z,4.70
2023-12-11T12:03:14.114Z,4.70
2023-12-11T12:05:56.173Z,4.70
2023-12-11T12:08:23.248Z,4.70
2023-12-11T12:10:50.210Z,4.70
2023-12-11T12:13:19.153Z,4.70
2023-12-11T12:15:46.357Z,4.70
2023-12-11T12:18:13.951Z,4.80
2023-12-11T12:20:41.088Z,4.80
2023-12-11T12:23:08.111Z,4.80
2023-12-11T12:25:35.412Z,4.80
2023-12-11T12:28:12.441Z,4.80
2023-12-11T12:30:40.236Z,4.80
2023-12-11T12:33:10.233Z,4.80
2023-12-11T12:35:38.273Z,4.80
2023-12-11T12:38:06.855Z,4.80
2023-12-11T12:40:35.015Z,4.80
2023-12-11T12:43:12.564Z,4.80
2023-12-11T12:45:40.047Z,4.80
2023-12-11T12:48:09.449Z,4.80
2023-12-11T12:50:36.672Z,4.90
2023-12-11T12:53:11.743Z,4.90
2023-12-11T12:55:40.428Z,4.90
2023-12-11T12:58:08.738Z,4.90
2023-12-11T13:00:36.025Z,4.90
2023-12-11T13:03:04.449Z,4.90
2023-12-11T13:05:41.856Z,4.90
2023-12-11T13:08:08.899Z,4.90
2023-12-11T13:10:35.952Z,4.90
2023-12-11T13:13:13.187Z,4.90
2023-12-11T13:15:40.921Z,4.90
2023-12-11T13:18:07.900Z,4.90
2023-12-11T13:20:35.139Z,4.90
2023-12-11T13:23:02.217Z,4.90
2023-12-11T13:25:29.394Z,4.90
2023-12-11T13:27:56.311Z,4.90
2023-12-11T13:30:23.666Z,4.90
2023-12-11T13:32:52.950Z,4.90
2023-12-11T13:35:20.999Z,4.90
2023-12-11T13:37:47.960Z,4.90
2023-12-11T13:40:17.465Z,4.80
2023-12-11T13:42:44.908Z,4.90
2023-12-11T13:45:11.808Z,4.90
2023-12-11T13:47:39.901Z,4.90
2023-12-11T13:50:08.020Z,4.80
2023-12-11T13:52:35.000Z,4.70
2023-12-11T13:55:02.048Z,4.60
2023-12-11T13:57:29.466Z,4.60
2023-12-11T13:59:56.396Z,4.70
2023-12-11T14:02:58.395Z,4.70
2023-12-11T14:05:15.982Z,4.80
2023-12-11T14:07:43.011Z,4.80
2023-12-11T14:10:10.170Z,4.80
2023-12-11T14:12:40.541Z,4.80
2023-12-11T14:15:08.426Z,4.80
2023-12-11T14:17:39.446Z,4.80
2023-12-11T14:20:07.672Z,4.80
2023-12-11T14:22:37.921Z,4.80
2023-12-11T14:25:07.444Z,4.80
2023-12-11T14:27:34.720Z,4.80
2023-12-11T14:30:01.963Z,4.70
2023-12-11T14:32:29.829Z,4.70
2023-12-11T14:34:56.856Z,4.80
2023-12-11T14:37:24.075Z,4.80
2023-12-11T14:39:51.403Z,4.80
2023-12-11T14:42:20.518Z,4.70
2023-12-11T14:44:47.540Z,4.70
2023-12-11T14:47:17.137Z,4.70
2023-12-11T14:49:44.394Z,4.70
2023-12-11T14:52:13.199Z,4.70
2023-12-11T14:54:40.986Z,4.80
2023-12-11T14:57:07.964Z,4.80
2023-12-11T14:59:34.931Z,4.80
2023-12-11T15:02:02.928Z,4.80
2023-12-11T15:04:30.327Z,4.80
2023-12-11T15:06:57.909Z,4.80
2023-12-11T15:09:24.913Z,4.80
2023-12-11T15:11:51.775Z,4.80
2023-12-11T15:14:19.321Z,4.80
2023-12-11T15:16:47.613Z,4.80
2023-12-11T15:19:14.672Z,4.70
2023-12-11T15:21:43.797Z,4.70
2023-12-11T15:24:10.883Z,4.70
2023-12-11T15:26:38.183Z,4.70
2023-12-11T15:29:08.418Z,4.80
2023-12-11T15:31:35.429Z,4.80
2023-12-11T15:34:02.558Z,4.80
2023-12-11T15:36:29.453Z,4.80
2023-12-11T15:38:56.638Z,4.80
2023-12-11T15:41:23.942Z,4.70
2023-12-11T15:43:51.204Z,4.70
2023-12-11T15:46:18.270Z,4.70
2023-12-11T15:48:47.681Z,4.70
2023-12-11T15:51:17.236Z,4.70
2023-12-11T15:53:45.702Z,4.70
2023-12-11T15:56:14.444Z,4.70
2023-12-11T15:58:41.356Z,4.70
2023-12-11T16:01:10.250Z,4.70
2023-12-11T16:03:40.437Z,4.70
2023-12-11T16:06:08.508Z,4.70
2023-12-11T16:08:36.109Z,4.80
2023-12-11T16:11:03.586Z,4.70
2023-12-11T16:13:31.684Z,4.70
2023-12-11T16:15:59.632Z,4.70
2023-12-11T16:18:27.128Z,4.60
2023-12-11T16:20:54.878Z,4.70
2023-12-11T16:23:21.731Z,4.60
2023-12-11T16:25:56.309Z,4.60
2023-12-11T16:28:29.712Z,4.60
2023-12-11T16:30:57.008Z,4.60
2023-12-11T16:33:25.257Z,4.70
2023-12-11T16:35:52.285Z,4.70
2023-12-11T16:38:19.234Z,4.70
2023-12-11T16:40:46.704Z,4.70
2023-12-11T16:43:13.691Z,4.80
2023-12-11T16:45:43.966Z,4.80
2023-12-11T16:48:11.400Z,4.80
2023-12-11T16:50:39.729Z,4.80
2023-12-11T16:53:07.653Z,4.70
2023-12-11T16:55:34.696Z,4.70
2023-12-11T16:58:01.556Z,4.60
2023-12-11T17:00:28.897Z,4.60
2023-12-11T17:02:57.072Z,4.60
2023-12-11T17:05:24.116Z,4.70
2023-12-11T17:07:52.061Z,4.70
2023-12-11T17:10:19.577Z,4.70
2023-12-11T17:12:47.193Z,4.60
2023-12-11T17:15:15.821Z,4.60
2023-12-11T17:17:45.608Z,4.60
2023-12-11T17:20:12.820Z,4.60
2023-12-11T17:22:39.909Z,4.60
2023-12-11T17:25:07.570Z,4.60
2023-12-11T17:27:34.784Z,4.50
2023-12-11T17:30:03.813Z,4.50
2023-12-11T17:32:32.698Z,4.60
2023-12-11T17:35:00.234Z,4.60
2023-12-11T17:37:27.704Z,4.60
2023-12-11T17:39:56.852Z,4.50
2023-12-11T17:42:25.128Z,4.50
2023-12-11T17:44:51.993Z,4.50
2023-12-11T17:47:20.063Z,4.40
2023-12-11T17:49:47.241Z,4.40
2023-12-11T17:52:14.601Z,4.40
2023-12-11T17:54:41.479Z,4.40
2023-12-11T17:57:10.181Z,4.40
2023-12-11T17:59:37.040Z,4.40
2023-12-11T18:02:05.535Z,4.30
2023-12-11T18:04:33.020Z,4.20
2023-12-11T18:07:00.459Z,4.10
2023-12-11T18:09:27.391Z,4.10
2023-12-11T18:11:54.421Z,4.20
2023-12-11T18:14:21.558Z,4.20
2023-12-11T18:16:48.477Z,4.30
2023-12-11T18:19:15.562Z,4.30
2023-12-11T18:21:42.451Z,4.30
2023-12-11T18:24:09.642Z,4.30
2023-12-11T18:26:36.833Z,4.30
2023-12-11T18:29:03.880Z,4.30
2023-12-11T18:31:31.289Z,4.30
2023-12-11T18:33:59.132Z,4.30
2023-12-11T18:36:26.402Z,4.30
2023-12-11T18:38:53.263Z,4.30
2023-12-11T18:41:27.747Z,4.20
2023-12-11T18:43:55.481Z,4.20
2023-12-11T18:46:22.549Z,4.20
2023-12-11T18:48:49.854Z,4.20
2023-12-11T18:51:30.650Z,4.30
2023-12-11T18:53:58.773Z,4.30
2023-12-11T18:56:28.736Z,4.30
2023-12-11T18:58:56.005Z,4.30
2023-12-11T19:01:24.658Z,4.30
2023-12-11T19:03:51.713Z,4.30
2023-12-11T19:06:19.086Z,4.30
2023-12-11T19:08:47.511Z,4.30
2023-12-11T19:11:15.271Z,4.40
2023-12-11T19:13:42.363Z,4.40
2023-12-11T19:16:09.885Z,4.40
2023-12-11T19:18:37.123Z,4.40
2023-12-11T19:21:04.261Z,4.40
2023-12-11T19:23:31.509Z,4.40
2023-12-11T19:25:59.363Z,4.40
2023-12-11T19:28:26.703Z,4.40
2023-12-11T19:30:53.839Z,4.40
2023-12-11T19:33:22.084Z,4.40
2023-12-11T19:35:49.311Z,4.40
2023-12-11T19:38:16.725Z,4.40
2023-12-11T19:40:43.757Z,4.40
2023-12-11T19:43:11.505Z,4.40
2023-12-11T19:45:38.838Z,4.40
2023-12-11T19:48:06.100Z,4.40
2023-12-11T19:50:33.279Z,4.40
2023-12-11T19:53:00.210Z,4.40
2023-12-11T19:55:27.460Z,4.40
2023-12-11T19:57:55.700Z,4.40
2023-12-11T20:00:22.792Z,4.40
2023-12-11T20:02:49.805Z,4.40
2023-12-11T20:05:16.923Z,4.40
2023-12-11T20:07:44.034Z,4.50
2023-12-11T20:10:12.043Z,4.40
2023-12-11T20:12:39.205Z,4.50
2023-12-11T20:15:06.718Z,4.50
2023-12-11T20:17:35.070Z,4.50
2023-12-11T20:20:05.621Z,4.50
2023-12-11T20:22:32.993Z,4.50
2023-12-11T20:25:00.069Z,4.50
2023-12-11T20:27:27.299Z,4.50
2023-12-11T20:29:55.469Z,4.50
2023-12-11T20:32:22.487Z,4.50
2023-12-11T20:34:49.519Z,4.50
2023-12-11T20:37:16.559Z,4.50
2023-12-11T20:39:44.289Z,4.50
2023-12-11T20:42:11.170Z,4.50
2023-12-11T20:44:38.185Z,4.50
2023-12-11T20:47:06.210Z,4.50
2023-12-11T20:49:35.191Z,4.50
2023-12-11T20:52:02.398Z,4.50
2023-12-11T20:54:29.350Z,4.50
2023-12-11T20:56:56.149Z,4.50
2023-12-11T20:59:23.127Z,4.50
2023-12-11T21:01:50.403Z,4.50
2023-12-11T21:04:19.337Z,4.50
2023-12-11T21:06:47.465Z,4.50
2023-12-11T21:09:15.779Z,4.50
2023-12-11T21:11:42.674Z,4.50
2023-12-11T21:14:09.765Z,4.50
2023-12-11T21:16:37.550Z,4.50
2023-12-11T21:19:05.069Z,4.50
2023-12-11T21:21:33.531Z,4.50
2023-12-11T21:24:00.828Z,4.50
2023-12-11T21:26:29.841Z,4.50
2023-12-11T21:28:57.506Z,4.50
2023-12-11T21:31:30.013Z,4.60
2023-12-11T21:33:57.814Z,4.50
2023-12-11T21:36:26.002Z,4.50
2023-12-11T21:38:53.099Z,4.50
2023-12-11T21:41:20.047Z,4.50
2023-12-11T21:43:48.512Z,4.50
2023-12-11T21:46:15.808Z,4.60
2023-12-11T21:48:44.809Z,4.50
2023-12-11T21:51:15.026Z,4.50
2023-12-11T21:53:41.874Z,4.50
2023-12-11T21:56:09.930Z,4.50
2023-12-11T21:58:36.843Z,4.50
2023-12-11T22:01:04.195Z,4.50
2023-12-11T22:03:31.870Z,4.50
2023-12-11T22:05:58.791Z,4.50
2023-12-11T22:08:25.872Z,4.50
2023-12-11T22:10:53.509Z,4.50
2023-12-11T22:13:20.612Z,4.50
2023-12-11T22:15:47.607Z,4.50
2023-12-11T22:18:14.922Z,4.50
2023-12-11T22:20:43.094Z,4.50
2023-12-11T22:23:10.384Z,4.50
2023-12-11T22:25:38.264Z,4.50
2023-12-11T22:28:05.222Z,4.50
2023-12-11T22:30:32.273Z,4.50
2023-12-11T22:32:59.841Z,4.50
2023-12-11T22:35:27.112Z,4.50
2023-12-11T22:37:54.425Z,4.40
2023-12-11T22:40:21.546Z,4.50
2023-12-11T22:42:48.828Z,4.50
2023-12-11T22:45:17.744Z,4.50
2023-12-11T22:47:45.089Z,4.50
2023-12-11T22:50:12.190Z,4.50
2023-12-11T22:52:39.600Z,4.50
2023-12-11T22:55:06.904Z,4.50
2023-12-11T22:57:35.006Z,4.50
2023-12-11T23:00:02.669Z,4.50
2023-12-11T23:02:29.760Z,4.40
2023-12-11T23:04:58.112Z,4.40
2023-12-11T23:07:25.625Z,4.40
2023-12-11T23:09:52.573Z,4.40
2023-12-11T23:12:19.456Z,4.50
2023-12-11T23:14:46.335Z,4.50
2023-12-11T23:17:13.824Z,4.50
2023-12-11T23:19:40.890Z,4.40
2023-12-11T23:22:07.895Z,4.40
2023-12-11T23:24:34.837Z,4.40
2023-12-11T23:27:02.030Z,4.40
2023-12-11T23:29:28.852Z,4.40
2023-12-11T23:31:55.823Z,4.40
2023-12-11T23:34:23.065Z,4.40
2023-12-11T23:36:49.960Z,4.40
2023-12-11T23:39:17.543Z,4.40
2023-12-11T23:41:44.923Z,4.40
2023-12-11T23:44:11.807Z,4.40
2023-12-11T23:46:39.201Z,4.40
2023-12-11T23:49:07.022Z,4.40
2023-12-11T23:51:33.932Z,4.40
2023-12-11T23:54:00.829Z,4.40
2023-12-11T23:56:27.682Z,4.40
2023-12-11T23:58:54.638Z,4.50
